createdAt,value
2018-06-03T00:00:09.734Z,101574.42
2018-06-03T00:02:37.930Z,101573.08
2018-06-03T00:05:06.117Z,101574.97
2018-06-03T00:07:34.321Z,101568.95
2018-06-03T00:10:02.537Z,101570.88
2018-06-03T00:12:30.735Z,101570.94
2018-06-03T00:14:58.894Z,101567.22
2018-06-03T00:17:27.117Z,101568.05
2018-06-03T00:19:55.284Z,101569.28
2018-06-03T00:22:28.213Z,101563.38
2018-06-03T00:24:56.430Z,101564.28
2018-06-03T00:27:24.703Z,101562.73
2018-06-03T00:29:52.874Z,101562.91
2018-06-03T00:32:21.083Z,101565.59
2018-06-03T00:34:49.245Z,101564.73
2018-06-03T00:37:17.463Z,101559.48
2018-06-03T00:39:45.670Z,101551.34
2018-06-03T00:42:13.910Z,101554.71
2018-06-03T00:44:42.086Z,101554.17
2018-06-03T00:47:10.268Z,101554.60
2018-06-03T00:49:38.483Z,101556.05
2018-06-03T00:52:06.676Z,101562.27
2018-06-03T00:54:34.883Z,101555.51
2018-06-03T00:57:09.839Z,101559.59
2018-06-03T00:59:38.574Z,101556.63
2018-06-03T01:02:06.755Z,101558.58
2018-06-03T01:04:34.978Z,101552.03
2018-06-03T01:07:03.140Z,101545.78
2018-06-03T01:09:31.382Z,101549.14
2018-06-03T01:11:59.558Z,101544.34
2018-06-03T01:14:27.825Z,101543.11
2018-06-03T01:16:56.007Z,101546.97
2018-06-03T01:19:24.251Z,101544.08
2018-06-03T01:21:52.439Z,101545.45
2018-06-03T01:24:20.638Z,101537.75
2018-06-03T01:26:48.803Z,101541.19
2018-06-03T01:29:16.984Z,101537.64
2018-06-03T01:31:45.209Z,101538.55
2018-06-03T01:34:13.389Z,101544.34
2018-06-03T01:36:41.613Z,101541.33
2018-06-03T01:39:09.811Z,101541.66
2018-06-03T01:41:38.042Z,101545.13
2018-06-03T01:44:06.222Z,101543.43
2018-06-03T01:46:34.420Z,101544.19
2018-06-03T01:49:02.600Z,101545.02
2018-06-03T01:51:30.813Z,101540.43
2018-06-03T01:53:59.000Z,101541.91
2018-06-03T01:56:27.204Z,101537.43
2018-06-03T01:58:55.427Z,101532.26
2018-06-03T02:01:23.638Z,101533.30
2018-06-03T02:03:51.821Z,101533.84
2018-06-03T02:06:20.000Z,101531.31
2018-06-03T02:08:48.221Z,101534.93
2018-06-03T02:11:16.433Z,101532.03
2018-06-03T02:13:44.620Z,101534.92
2018-06-03T02:16:12.823Z,101530.59
2018-06-03T02:18:41.019Z,101525.05
2018-06-03T02:21:09.184Z,101530.04
2018-06-03T02:23:37.390Z,101523.61
2018-06-03T02:26:05.595Z,101522.98
2018-06-03T02:28:33.808Z,101520.30
2018-06-03T02:31:02.003Z,101519.06
2018-06-03T02:33:30.181Z,101519.09
2018-06-03T02:35:58.337Z,101519.30
2018-06-03T02:38:26.522Z,101525.51
2018-06-03T02:40:54.702Z,101519.84
2018-06-03T02:43:22.918Z,101520.38
2018-06-03T02:45:51.095Z,101521.02
2018-06-03T02:48:34.112Z,101514.80
2018-06-03T02:51:05.300Z,101512.79
2018-06-03T02:53:33.497Z,101511.09
2018-06-03T02:56:01.670Z,101511.55
2018-06-03T02:58:29.868Z,101512.89
2018-06-03T03:00:58.085Z,101523.05
2018-06-03T03:03:26.285Z,101518.57
2018-06-03T03:05:54.449Z,101522.08
2018-06-03T03:08:22.604Z,101524.75
2018-06-03T03:10:50.801Z,101522.95
2018-06-03T03:13:18.995Z,101527.02
2018-06-03T03:15:47.246Z,101521.45
2018-06-03T03:18:15.462Z,101519.72
2018-06-03T03:20:43.653Z,101515.88
2018-06-03T03:23:11.855Z,101514.36
2018-06-03T03:25:40.036Z,101513.44
2018-06-03T03:28:08.237Z,101515.48
2018-06-03T03:30:36.407Z,101516.81
2018-06-03T03:33:04.597Z,101511.28
2018-06-03T03:35:32.792Z,101517.30
2018-06-03T03:38:00.997Z,101518.05
2018-06-03T03:40:29.174Z,101521.72
2018-06-03T03:42:57.384Z,101522.59
2018-06-03T03:45:25.547Z,101522.26
2018-06-03T03:47:53.767Z,101517.09
2018-06-03T03:50:21.938Z,101517.16
2018-06-03T03:52:50.147Z,101519.13
2018-06-03T03:55:18.347Z,101518.33
2018-06-03T03:57:46.560Z,101520.23
2018-06-03T04:00:14.758Z,101524.95
2018-06-03T04:02:42.947Z,101526.65
2018-06-03T04:05:11.199Z,101526.65
2018-06-03T04:07:39.458Z,101523.91
2018-06-03T04:10:07.624Z,101528.65
2018-06-03T04:12:35.791Z,101526.24
2018-06-03T04:15:03.986Z,101522.83
2018-06-03T04:17:32.157Z,101523.16
2018-06-03T04:20:00.356Z,101524.94
2018-06-03T04:22:28.526Z,101522.69
2018-06-03T04:24:56.723Z,101521.95
2018-06-03T04:27:24.905Z,101522.05
2018-06-03T04:29:53.124Z,101524.41
2018-06-03T04:32:21.327Z,101522.42
2018-06-03T04:34:49.511Z,101520.95
2018-06-03T04:37:17.691Z,101521.75
2018-06-03T04:39:45.879Z,101523.19
2018-06-03T04:42:14.089Z,101527.70
2018-06-03T04:44:42.253Z,101529.75
2018-06-03T04:47:10.449Z,101534.59
2018-06-03T04:49:38.635Z,101533.45
2018-06-03T04:52:06.843Z,101532.37
2018-06-03T04:54:35.044Z,101532.82
2018-06-03T04:57:03.260Z,101543.57
2018-06-03T04:59:31.436Z,101543.97
2018-06-03T05:01:59.643Z,101546.25
2018-06-03T05:04:27.804Z,101543.11
2018-06-03T05:06:56.018Z,101547.45
2018-06-03T05:09:24.201Z,101553.39
2018-06-03T05:11:52.412Z,101553.86
2018-06-03T05:14:20.618Z,101549.70
2018-06-03T05:16:48.792Z,101552.41
2018-06-03T05:19:16.997Z,101553.62
2018-06-03T05:21:45.154Z,101552.69
2018-06-03T05:24:13.379Z,101552.41
2018-06-03T05:26:41.538Z,101558.66
2018-06-03T05:29:09.738Z,101559.92
2018-06-03T05:31:37.923Z,101564.75
2018-06-03T05:34:06.095Z,101570.01
2018-06-03T05:36:34.307Z,101569.50
2018-06-03T05:39:02.479Z,101574.42
2018-06-03T05:41:30.687Z,101571.75
2018-06-03T05:43:58.890Z,101567.77
2018-06-03T05:46:27.095Z,101566.22
2018-06-03T05:48:55.276Z,101565.38
2018-06-03T05:51:23.456Z,101565.31
2018-06-03T05:53:51.643Z,101570.52
2018-06-03T05:56:19.832Z,101562.41
2018-06-03T05:58:48.021Z,101568.05
2018-06-03T06:01:16.196Z,101561.47
2018-06-03T06:03:44.410Z,101562.52
2018-06-03T06:06:12.605Z,101568.33
2018-06-03T06:08:40.825Z,101576.48
2018-06-03T06:11:09.000Z,101574.96
2018-06-03T06:13:37.182Z,101577.82
2018-06-03T06:16:05.387Z,101587.41
2018-06-03T06:18:33.566Z,101586.61
2018-06-03T06:21:01.774Z,101590.88
2018-06-03T06:23:29.968Z,101590.80
2018-06-03T06:25:58.137Z,101596.45
2018-06-03T06:28:26.318Z,101593.06
2018-06-03T06:30:54.588Z,101590.08
2018-06-03T06:33:22.781Z,101595.66
2018-06-03T06:35:50.981Z,101592.09
2018-06-03T06:38:19.145Z,101592.18
2018-06-03T06:41:01.316Z,101592.28
2018-06-03T06:43:31.736Z,101592.03
2018-06-03T06:45:59.944Z,101597.06
2018-06-03T06:48:28.104Z,101602.67
2018-06-03T06:50:56.309Z,101597.94
2018-06-03T06:53:24.525Z,101603.23
2018-06-03T06:55:52.698Z,101599.48
2018-06-03T06:58:20.904Z,101601.72
2018-06-03T07:00:49.138Z,101602.47
2018-06-03T07:03:17.369Z,101607.38
2018-06-03T07:05:45.936Z,101607.15
2018-06-03T07:08:14.539Z,101609.45
2018-06-03T07:10:45.103Z,101607.14
2018-06-03T07:13:14.419Z,101605.17
2018-06-03T07:15:43.091Z,101603.55
2018-06-03T07:18:11.772Z,101604.88
2018-06-03T07:20:40.447Z,101610.64
2018-06-03T07:23:09.868Z,101606.02
2018-06-03T07:25:38.410Z,101604.36
2018-06-03T07:28:07.126Z,101604.93
2018-06-03T07:30:36.124Z,101599.38
2018-06-03T07:33:04.914Z,101602.74
2018-06-03T07:35:33.388Z,101601.61
2018-06-03T07:38:01.993Z,101607.77
2018-06-03T07:40:31.555Z,101601.55
2018-06-03T07:43:00.147Z,101611.17
2018-06-03T07:45:28.615Z,101605.24
2018-06-03T07:47:57.237Z,101606.20
2018-06-03T07:50:25.942Z,101607.66
2018-06-03T07:52:54.490Z,101608.40
2018-06-03T07:55:23.421Z,101610.00
2018-06-03T07:57:51.768Z,101609.45
2018-06-03T08:00:20.501Z,101612.03
2018-06-03T08:02:49.142Z,101604.37
2018-06-03T08:05:17.828Z,101606.78
2018-06-03T08:07:46.363Z,101605.09
2018-06-03T08:10:15.647Z,101603.08
2018-06-03T08:12:44.356Z,101604.20
2018-06-03T08:15:13.084Z,101600.39
2018-06-03T08:17:41.650Z,101607.09
2018-06-03T08:20:10.165Z,101605.84
2018-06-03T08:22:38.735Z,101604.50
2018-06-03T08:25:07.312Z,101600.52
2018-06-03T08:27:36.385Z,101595.57
2018-06-03T08:30:04.983Z,101591.91
2018-06-03T08:32:33.572Z,101595.38
2018-06-03T08:35:02.322Z,101593.75
2018-06-03T08:37:30.836Z,101593.19
2018-06-03T08:39:59.426Z,101598.97
2018-06-03T08:42:28.047Z,101591.52
2018-06-03T08:45:28.662Z,101593.68
2018-06-03T08:47:59.559Z,101596.24
2018-06-03T08:50:29.724Z,101596.62
2018-06-03T08:52:59.968Z,101592.12
2018-06-03T08:55:29.728Z,101591.50
2018-06-03T08:57:59.184Z,101595.75
2018-06-03T09:00:28.919Z,101592.02
2018-06-03T09:02:59.433Z,101594.45
2018-06-03T09:05:29.182Z,101591.70
2018-06-03T09:07:58.291Z,101592.84
2018-06-03T09:10:27.744Z,101591.64
2018-06-03T09:12:56.829Z,101591.97
2018-06-03T09:15:26.067Z,101588.58
2018-06-03T09:17:55.177Z,101587.20
2018-06-03T09:20:24.280Z,101589.05
2018-06-03T09:22:53.426Z,101593.20
2018-06-03T09:25:28.849Z,101586.33
2018-06-03T09:27:57.978Z,101573.64
2018-06-03T09:30:33.723Z,101570.36
2018-06-03T09:33:02.903Z,101579.82
2018-06-03T09:35:32.020Z,101578.80
2018-06-03T09:38:01.117Z,101581.30
2018-06-03T09:40:30.287Z,101578.27
2018-06-03T09:42:59.406Z,101573.16
2018-06-03T09:45:29.132Z,101576.83
2018-06-03T09:47:59.157Z,101579.00
2018-06-03T09:50:28.866Z,101568.78
2018-06-03T09:53:11.558Z,101564.27
2018-06-03T09:55:57.236Z,101569.06
2018-06-03T09:58:35.462Z,101563.81
2018-06-03T10:01:09.438Z,101557.23
2018-06-03T10:03:39.164Z,101565.47
2018-06-03T10:06:08.392Z,101569.67
2018-06-03T10:08:37.539Z,101562.53
2018-06-03T10:11:07.009Z,101563.83
2018-06-03T10:13:36.164Z,101564.10
2018-06-03T10:16:12.110Z,101569.78
2018-06-03T10:18:41.154Z,101565.01
2018-06-03T10:21:10.283Z,101566.75
2018-06-03T10:23:39.432Z,101565.92
2018-06-03T10:26:09.039Z,101558.02
2018-06-03T10:28:38.183Z,101564.08
2018-06-03T10:31:07.332Z,101555.23
2018-06-03T10:33:43.205Z,101553.92
2018-06-03T10:36:12.307Z,101559.18
2018-06-03T10:38:41.657Z,101554.86
2018-06-03T10:41:10.780Z,101548.72
2018-06-03T10:43:40.026Z,101547.62
2018-06-03T10:46:09.352Z,101545.02
2018-06-03T10:48:38.474Z,101548.89
2018-06-03T10:51:07.760Z,101542.61
2018-06-03T10:53:36.898Z,101544.44
2018-06-03T10:56:06.062Z,101537.30
2018-06-03T10:58:35.181Z,101537.20
2018-06-03T11:01:04.283Z,101539.16
2018-06-03T11:03:33.373Z,101536.09
2018-06-03T11:06:02.519Z,101535.37
2018-06-03T11:08:31.653Z,101529.03
2018-06-03T11:11:00.791Z,101527.51
2018-06-03T11:13:29.883Z,101528.30
2018-06-03T11:15:59.051Z,101524.26
2018-06-03T11:18:28.157Z,101526.30
2018-06-03T11:20:57.310Z,101519.31
2018-06-03T11:23:26.417Z,101521.00
2018-06-03T11:25:55.556Z,101521.09
2018-06-03T11:28:24.682Z,101522.13
2018-06-03T11:30:53.784Z,101518.71
2018-06-03T11:33:22.938Z,101513.59
2018-06-03T11:35:52.053Z,101520.20
2018-06-03T11:38:21.263Z,101522.84
2018-06-03T11:40:50.411Z,101520.88
2018-06-03T11:43:19.496Z,101512.66
2018-06-03T11:45:48.808Z,101514.17
2018-06-03T11:48:17.967Z,101513.83
2018-06-03T11:50:53.452Z,101513.58
2018-06-03T11:53:22.592Z,101521.73
2018-06-03T11:55:51.730Z,101511.78
2018-06-03T11:58:41.042Z,101509.73
2018-06-03T12:01:10.482Z,101514.75
2018-06-03T12:03:39.592Z,101513.03
2018-06-03T12:06:08.732Z,101505.13
2018-06-03T12:08:37.891Z,101508.47
2018-06-03T12:11:06.977Z,101492.86
2018-06-03T12:13:36.775Z,101498.58
2018-06-03T12:16:06.045Z,101498.83
2018-06-03T12:18:35.187Z,101496.62
2018-06-03T12:21:04.297Z,101495.51
2018-06-03T12:23:33.425Z,101495.23
2018-06-03T12:26:02.568Z,101493.30
2018-06-03T12:28:31.687Z,101492.16
2018-06-03T12:31:00.868Z,101493.80
2018-06-03T12:33:29.960Z,101492.55
2018-06-03T12:35:59.089Z,101496.00
2018-06-03T12:38:28.211Z,101491.24
2018-06-03T12:40:57.301Z,101488.35
2018-06-03T12:43:26.439Z,101489.84
2018-06-03T12:45:55.525Z,101495.14
2018-06-03T12:48:24.628Z,101490.02
2018-06-03T12:50:53.774Z,101480.60
2018-06-03T12:53:22.882Z,101481.05
2018-06-03T12:55:52.083Z,101469.13
2018-06-03T12:58:21.193Z,101474.98
2018-06-03T13:00:50.291Z,101468.77
2018-06-03T13:03:19.358Z,101462.87
2018-06-03T13:05:48.454Z,101471.08
2018-06-03T13:08:17.677Z,101470.89
2018-06-03T13:10:46.853Z,101466.56
2018-06-03T13:13:15.958Z,101468.15
2018-06-03T13:15:45.126Z,101468.51
2018-06-03T13:18:14.229Z,101466.89
2018-06-03T13:20:43.421Z,101468.70
2018-06-03T13:23:12.540Z,101466.59
2018-06-03T13:25:41.670Z,101456.12
2018-06-03T13:28:10.814Z,101449.58
2018-06-03T13:30:39.906Z,101452.98
2018-06-03T13:33:09.043Z,101445.88
2018-06-03T13:35:38.154Z,101439.73
2018-06-03T13:38:07.303Z,101445.95
2018-06-03T13:40:36.443Z,101433.53
2018-06-03T13:43:05.551Z,101436.44
2018-06-03T13:45:34.647Z,101432.16
2018-06-03T13:48:03.843Z,101422.23
2018-06-03T13:50:33.016Z,101414.80
2018-06-03T13:53:02.236Z,101417.80
2018-06-03T13:55:31.344Z,101413.80
2018-06-03T13:58:00.498Z,101417.00
2018-06-03T14:00:29.605Z,101407.58
2018-06-03T14:02:58.692Z,101409.33
2018-06-03T14:05:27.971Z,101405.95
2018-06-03T14:07:57.117Z,101404.61
2018-06-03T14:10:26.233Z,101403.61
2018-06-03T14:12:55.303Z,101398.99
2018-06-03T14:15:24.455Z,101396.88
2018-06-03T14:17:53.595Z,101391.03
2018-06-03T14:20:22.726Z,101379.91
2018-06-03T14:22:51.825Z,101380.61
2018-06-03T14:25:21.005Z,101374.55
2018-06-03T14:27:50.177Z,101372.08
2018-06-03T14:30:19.325Z,101372.51
2018-06-03T14:32:48.420Z,101365.59
2018-06-03T14:35:17.566Z,101366.36
2018-06-03T14:37:47.689Z,101358.52
2018-06-03T14:40:16.803Z,101360.17
2018-06-03T14:42:45.875Z,101350.79
2018-06-03T14:45:15.000Z,101351.94
2018-06-03T14:47:44.097Z,101344.33
2018-06-03T14:50:13.242Z,101348.20
2018-06-03T14:52:42.340Z,101344.23
2018-06-03T14:55:11.496Z,101338.11
2018-06-03T14:57:40.608Z,101338.46
2018-06-03T15:00:09.675Z,101329.47
2018-06-03T15:02:38.782Z,101332.98
2018-06-03T15:05:07.988Z,101326.64
2018-06-03T15:07:37.134Z,101316.13
2018-06-03T15:10:06.501Z,101314.44
2018-06-03T15:12:35.600Z,101309.63
2018-06-03T15:15:04.826Z,101310.19
2018-06-03T15:17:34.387Z,101306.06
2018-06-03T15:20:03.580Z,101308.92
2018-06-03T15:22:32.710Z,101299.92
2018-06-03T15:25:01.840Z,101295.77
2018-06-03T15:27:30.957Z,101295.67
2018-06-03T15:30:00.051Z,101287.68
2018-06-03T15:32:29.183Z,101286.36
2018-06-03T15:34:58.280Z,101281.59
2018-06-03T15:37:27.420Z,101277.19
2018-06-03T15:39:56.503Z,101280.27
2018-06-03T15:42:25.649Z,101269.72
2018-06-03T15:44:54.799Z,101266.86
2018-06-03T15:47:24.489Z,101278.83
2018-06-03T15:49:53.720Z,101274.45
2018-06-03T15:52:22.884Z,101273.30
2018-06-03T15:54:52.355Z,101275.38
2018-06-03T15:57:21.815Z,101270.98
2018-06-03T15:59:51.452Z,101275.13
2018-06-03T16:02:20.855Z,101269.82
2018-06-03T16:04:50.649Z,101265.73
2018-06-03T16:07:20.075Z,101271.67
2018-06-03T16:09:49.587Z,101261.14
2018-06-03T16:12:19.048Z,101258.44
2018-06-03T16:14:48.485Z,101257.69
2018-06-03T16:17:17.932Z,101253.30
2018-06-03T16:19:47.391Z,101255.45
2018-06-03T16:22:16.893Z,101250.17
2018-06-03T16:24:46.390Z,101245.88
2018-06-03T16:27:15.808Z,101239.16
2018-06-03T16:29:45.345Z,101236.58
2018-06-03T16:32:14.853Z,101238.13
2018-06-03T16:34:44.323Z,101239.45
2018-06-03T16:37:13.827Z,101226.56
2018-06-03T16:39:42.977Z,101228.03
2018-06-03T16:42:14.598Z,101220.77
2018-06-03T16:44:43.765Z,101227.22
2018-06-03T16:47:12.864Z,101223.16
2018-06-03T16:49:42.011Z,101218.73
2018-06-03T16:52:11.125Z,101219.38
2018-06-03T16:54:40.268Z,101219.97
2018-06-03T16:57:09.422Z,101218.61
2018-06-03T16:59:38.611Z,101217.48
2018-06-03T17:02:07.766Z,101216.81
2018-06-03T17:04:36.904Z,101216.95
2018-06-03T17:07:06.243Z,101217.60
2018-06-03T17:09:36.732Z,101211.81
2018-06-03T17:12:05.862Z,101210.52
2018-06-03T17:14:35.083Z,101208.83
2018-06-03T17:17:04.335Z,101210.46
2018-06-03T17:19:33.497Z,101207.91
2018-06-03T17:22:07.374Z,101204.55
2018-06-03T17:24:36.512Z,101198.42
2018-06-03T17:27:06.986Z,101202.31
2018-06-03T17:29:36.115Z,101204.58
2018-06-03T17:32:05.266Z,101202.58
2018-06-03T17:34:34.394Z,101203.18
2018-06-03T17:37:03.698Z,101197.67
2018-06-03T17:39:32.811Z,101194.42
2018-06-03T17:42:01.977Z,101196.26
2018-06-03T17:44:31.087Z,101202.84
2018-06-03T17:47:00.222Z,101204.00
2018-06-03T17:49:29.377Z,101196.42
2018-06-03T17:51:58.553Z,101199.87
2018-06-03T17:54:28.336Z,101195.58
2018-06-03T17:56:57.470Z,101189.23
2018-06-03T17:59:26.588Z,101182.14
2018-06-03T18:01:55.758Z,101185.15
2018-06-03T18:04:24.910Z,101188.86
2018-06-03T18:06:54.025Z,101183.89
2018-06-03T18:09:24.934Z,101181.31
2018-06-03T18:11:54.023Z,101178.59
2018-06-03T18:14:23.163Z,101176.84
2018-06-03T18:16:52.536Z,101179.99
2018-06-03T18:19:21.650Z,101180.75
2018-06-03T18:21:50.766Z,101183.05
2018-06-03T18:24:19.897Z,101180.88
2018-06-03T18:26:49.038Z,101182.00
2018-06-03T18:29:18.152Z,101176.67
2018-06-03T18:31:47.243Z,101179.87
2018-06-03T18:34:16.379Z,101182.72
2018-06-03T18:36:45.469Z,101182.09
2018-06-03T18:39:14.595Z,101176.55
2018-06-03T18:41:43.755Z,101177.86
2018-06-03T18:44:12.883Z,101173.75
2018-06-03T18:46:41.982Z,101175.54
2018-06-03T18:49:11.143Z,101173.25
2018-06-03T18:51:40.267Z,101178.94
2018-06-03T18:54:09.432Z,101172.72
2018-06-03T18:56:38.538Z,101173.02
2018-06-03T18:59:07.630Z,101179.76
2018-06-03T19:01:36.807Z,101174.95
2018-06-03T19:04:06.025Z,101172.84
2018-06-03T19:06:35.126Z,101171.60
2018-06-03T19:09:06.763Z,101176.42
2018-06-03T19:11:36.054Z,101176.72
2018-06-03T19:14:05.231Z,101171.91
2018-06-03T19:16:34.330Z,101173.41
2018-06-03T19:19:03.522Z,101170.92
2018-06-03T19:21:32.638Z,101176.31
2018-06-03T19:24:01.769Z,101175.26
2018-06-03T19:26:30.899Z,101172.66
2018-06-03T19:29:00.036Z,101171.30
2018-06-03T19:31:29.132Z,101180.41
2018-06-03T19:33:58.285Z,101183.67
2018-06-03T19:36:27.391Z,101184.88
2018-06-03T19:38:56.518Z,101189.28
2018-06-03T19:41:26.687Z,101189.05
2018-06-03T19:43:55.796Z,101194.38
2018-06-03T19:46:24.994Z,101190.10
2018-06-03T19:48:54.169Z,101186.86
2018-06-03T19:51:23.614Z,101189.73
2018-06-03T19:53:52.733Z,101188.67
2018-06-03T19:56:21.877Z,101189.58
2018-06-03T19:58:51.677Z,101192.34
2018-06-03T20:01:20.759Z,101193.45
2018-06-03T20:03:49.929Z,101194.01
2018-06-03T20:06:19.106Z,101197.11
2018-06-03T20:08:48.261Z,101198.25
2018-06-03T20:11:17.543Z,101198.80
2018-06-03T20:13:46.688Z,101200.42
2018-06-03T20:16:15.834Z,101197.15
2018-06-03T20:18:45.054Z,101190.84
2018-06-03T20:21:14.203Z,101186.94
2018-06-03T20:23:43.304Z,101182.84
2018-06-03T20:26:12.441Z,101187.00
2018-06-03T20:28:41.569Z,101184.08
2018-06-03T20:31:10.693Z,101185.48
2018-06-03T20:33:39.831Z,101187.23
2018-06-03T20:36:09.003Z,101190.05
2018-06-03T20:38:38.139Z,101190.73
2018-06-03T20:41:07.329Z,101189.41
2018-06-03T20:43:36.459Z,101190.81
2018-06-03T20:46:05.696Z,101193.05
2018-06-03T20:48:34.784Z,101186.73
2018-06-03T20:51:03.929Z,101196.99
2018-06-03T20:53:33.340Z,101195.14
2018-06-03T20:56:02.494Z,101194.30
2018-06-03T20:58:31.609Z,101191.02
2018-06-03T21:01:00.795Z,101197.52
2018-06-03T21:03:29.914Z,101201.95
2018-06-03T21:05:59.075Z,101194.15
2018-06-03T21:08:28.302Z,101196.11
2018-06-03T21:10:57.395Z,101190.52
2018-06-03T21:13:26.522Z,101187.97
2018-06-03T21:15:55.633Z,101191.88
2018-06-03T21:18:24.797Z,101188.11
2018-06-03T21:20:53.914Z,101194.09
2018-06-03T21:23:23.073Z,101189.50
2018-06-03T21:25:52.267Z,101195.70
2018-06-03T21:28:21.381Z,101186.43
2018-06-03T21:30:50.634Z,101190.45
2018-06-03T21:33:19.796Z,101186.94
2018-06-03T21:35:48.914Z,101196.22
2018-06-03T21:38:18.038Z,101192.20
2018-06-03T21:40:47.255Z,101184.53
2018-06-03T21:43:16.566Z,101188.81
2018-06-03T21:45:45.651Z,101183.94
2018-06-03T21:48:14.776Z,101181.16
2018-06-03T21:50:44.212Z,101179.95
2018-06-03T21:53:13.377Z,101176.45
2018-06-03T21:55:42.798Z,101189.27
2018-06-03T21:58:11.916Z,101182.08
2018-06-03T22:00:41.345Z,101178.57
2018-06-03T22:03:10.485Z,101178.19
2018-06-03T22:05:39.647Z,101176.97
2018-06-03T22:08:08.837Z,101167.58
2018-06-03T22:10:38.000Z,101172.82
2018-06-03T22:13:07.137Z,101170.14
2018-06-03T22:15:36.305Z,101171.26
2018-06-03T22:18:05.808Z,101167.97
2018-06-03T22:20:35.622Z,101160.31
2018-06-03T22:23:04.836Z,101167.75
2018-06-03T22:25:34.041Z,101167.17
2018-06-03T22:28:03.146Z,101159.00
2018-06-03T22:30:33.541Z,101167.43
2018-06-03T22:33:02.711Z,101166.31
2018-06-03T22:35:31.858Z,101162.19
2018-06-03T22:38:01.149Z,101163.78
2018-06-03T22:40:30.291Z,101165.73
2018-06-03T22:42:59.466Z,101159.19
2018-06-03T22:45:28.542Z,101165.76
2018-06-03T22:47:57.672Z,101161.38
2018-06-03T22:50:26.799Z,101159.44
2018-06-03T22:52:55.956Z,101160.42
2018-06-03T22:55:25.136Z,101160.30
2018-06-03T22:57:55.101Z,101163.70
2018-06-03T23:00:29.963Z,101166.03
2018-06-03T23:03:04.377Z,101166.16
2018-06-03T23:05:33.642Z,101165.17
2018-06-03T23:08:02.824Z,101161.40
2018-06-03T23:10:31.937Z,101159.83
2018-06-03T23:13:01.125Z,101154.46
2018-06-03T23:15:30.291Z,101157.05
2018-06-03T23:17:59.573Z,101154.09
2018-06-03T23:20:28.671Z,101154.96
2018-06-03T23:22:57.926Z,101154.73
2018-06-03T23:25:27.084Z,101149.72
2018-06-03T23:27:56.470Z,101149.72
2018-06-03T23:30:25.651Z,101147.89
2018-06-03T23:32:55.024Z,101146.92
2018-06-03T23:35:24.170Z,101143.86
2018-06-03T23:37:53.345Z,101150.09
2018-06-03T23:40:22.421Z,101145.07
2018-06-03T23:42:51.574Z,101146.05
2018-06-03T23:45:20.656Z,101144.36
2018-06-03T23:47:49.765Z,101141.19
2018-06-03T23:50:18.889Z,101136.70
2018-06-03T23:52:48.000Z,101133.28
2018-06-03T23:55:17.135Z,101126.70
2018-06-03T23:57:46.245Z,101132.55
